Westgard — PDBQ — position and weather

sailwx.info

Track history (hours):
 
Tides and Currents Weather Stations Pressure Air Temp Water Temp Dewpoint Dewpoint Depression Visibility Wind Speed Wind Dir Waves Ship Positions

Westgard

Last reported at 2015-May-02 10:33 UTC. Time now 2015-May-03 19:55 UTC.
Position N 53°20' W 003°42'.

Length 89 m; draft 5.7 m.

Type: Ship. MMSI: 246457000.

Date/timePositionNaut miles runAvg speedWind from/ knotsBaromVisibWave heightAir tempDewpointWater temp
2015-May-02 10:33N 53°20' W 003°42'2 2.3
2015-May-02 09:33N 53°18' W 003°40'0 0.0
2015-May-02 08:33N 53°18' W 003°40'0 0.0
2015-May-02 07:33N 53°18' W 003°40'0 0.0
2015-May-02 06:33N 53°18' W 003°40'1 0.5
2015-May-02 05:33N 53°18' W 003°41'2 1.8
2015-May-02 04:33N 53°20' W 003°42'0 0.0
2015-May-02 03:33N 53°20' W 003°42'0 0.0
2015-May-02 02:33N 53°20' W 003°42'0 0.0
2015-May-02 01:33N 53°20' W 003°42'0 0.0
2015-May-02 00:33N 53°20' W 003°42'0 0.0
2015-May-01 23:33N 53°20' W 003°42'0 0.0
2015-May-01 22:33N 53°20' W 003°42'0 0.0
2015-May-01 21:33N 53°20' W 003°42'0 0.0
2015-May-01 20:31N 53°20' W 003°42'0 0.0
2015-May-01 19:33N 53°20' W 003°42'0 0.0
2015-May-01 18:33N 53°20' W 003°42'0 0.0
2015-May-01 17:33N 53°20' W 003°42'0 0.0
2015-May-01 16:33N 53°20' W 003°42'0 0.0
2015-May-01 15:33N 53°20' W 003°42'0 0.0
2015-May-01 14:33N 53°20' W 003°42'0 0.0
2015-May-01 13:33N 53°20' W 003°42'0 0.0
2015-May-01 12:33N 53°20' W 003°42'0 0.0
2015-May-01 11:33N 53°20' W 003°42'0 0.0
2015-May-01 10:33N 53°20' W 003°42'0 0.0
2015-May-01 09:33N 53°20' W 003°42'0 0.0
2015-May-01 08:33N 53°20' W 003°42'0 0.1
2015-May-01 07:33N 53°20' W 003°42'69 9.2
2015-May-01 00:05N 54°12' W 004°56'610.8
2015-Apr-30 23:30N 54°18' W 004°59'1010.8
2015-Apr-30 22:33N 54°28' W 005°02'1111.1
2015-Apr-30 21:33N 54°39' W 005°07'1211.6
2015-Apr-30 20:33N 54°50' W 005°12'  
2015-Apr-28 12:30N 55°15' W 005°42'9 9.5
2015-Apr-28 11:32N 55°15' W 005°58'9 8.9
2015-Apr-28 10:33N 55°21' W 006°09'9 9.4
2015-Apr-28 09:33N 55°27' W 006°22'10 9.5
2015-Apr-28 08:33N 55°36' W 006°30'9 8.7
2015-Apr-28 07:33N 55°43' W 006°39'138 9.7
2015-Apr-27 17:16N 57°60' W 006°03'710.1
2015-Apr-27 16:33N 58°06' W 005°54'1010.2
2015-Apr-27 15:33N 58°14' W 005°42'1110.1
2015-Apr-27 14:30N 58°22' W 005°29'45 9.1
2015-Apr-27 09:32N 58°41' W 004°10'9 9.4
2015-Apr-27 08:33N 58°41' W 003°52'10 9.6
2015-Apr-27 07:33N 58°41' W 003°34'10 9.6
2015-Apr-27 06:28N 58°42' W 003°14'7 7.9
2015-Apr-27 05:33N 58°42' W 003°00'9 8.7
2015-Apr-27 04:33N 58°41' W 002°43'280 9.6
2015-Apr-25 23:29N 58°01' E 006°05'140 9.9
2015-Apr-25 09:21N 57°50' E 010°27'810.0
2015-Apr-25 08:31N 57°49' E 010°42'1010.3
2015-Apr-25 07:33N 57°43' E 010°57'1110.7
2015-Apr-25 06:33N 57°36' E 011°12'1111.3
2015-Apr-25 05:33N 57°27' E 011°26'1111.5
2015-Apr-25 04:33N 57°17' E 011°35'1211.4
2015-Apr-25 03:32N 57°07' E 011°45'1111.3
2015-Apr-25 02:33N 56°57' E 011°54'1111.3
2015-Apr-25 01:33N 56°47' E 012°03'1110.7
2015-Apr-25 00:33N 56°37' E 012°11'1111.1
2015-Apr-24 23:33N 56°27' E 012°18'1111.4
2015-Apr-24 22:33N 56°16' E 012°26'1111.3
2015-Apr-24 21:33N 56°06' E 012°35'1110.9
2015-Apr-24 20:33N 55°56' E 012°43'1111.0
2015-Apr-24 19:33N 55°45' E 012°42'1110.6
2015-Apr-24 18:33N 55°35' E 012°42'1110.8
2015-Apr-24 17:33N 55°24' E 012°42'9 9.3
2015-Apr-24 16:33N 55°16' E 012°51'1110.9
2015-Apr-24 15:33N 55°16' E 013°11'4210.2
2015-Apr-24 11:28N 55°18' E 014°24'1010.8
2015-Apr-24 10:33N 55°25' E 014°36'1110.7
2015-Apr-24 09:33N 55°29' E 014°54'1110.8
2015-Apr-24 08:33N 55°32' E 015°12'  
Track history (hours):
 
Tides and Currents Weather Stations Pressure Air Temp Water Temp Dewpoint Dewpoint Depression Visibility Wind Speed Wind Dir Waves Ship Positions

Westgard

Last reported at 2015-May-02 10:33 UTC. Time now 2015-May-03 19:55 UTC.
Position N 53°20' W 003°42'.

Length 89 m; draft 5.7 m.

Type: Ship. MMSI: 246457000.

Date/timePositionNaut miles runAvg speedWind from/ knotsBaromVisibWave heightAir tempDewpointWater temp
2015-May-02 10:33N 53°20' W 003°42'2 2.3
2015-May-02 09:33N 53°18' W 003°40'0 0.0
2015-May-02 08:33N 53°18' W 003°40'0 0.0
2015-May-02 07:33N 53°18' W 003°40'0 0.0
2015-May-02 06:33N 53°18' W 003°40'1 0.5
2015-May-02 05:33N 53°18' W 003°41'2 1.8
2015-May-02 04:33N 53°20' W 003°42'0 0.0
2015-May-02 03:33N 53°20' W 003°42'0 0.0
2015-May-02 02:33N 53°20' W 003°42'0 0.0
2015-May-02 01:33N 53°20' W 003°42'0 0.0
2015-May-02 00:33N 53°20' W 003°42'0 0.0
2015-May-01 23:33N 53°20' W 003°42'0 0.0
2015-May-01 22:33N 53°20' W 003°42'0 0.0
2015-May-01 21:33N 53°20' W 003°42'0 0.0
2015-May-01 20:31N 53°20' W 003°42'0 0.0
2015-May-01 19:33N 53°20' W 003°42'0 0.0
2015-May-01 18:33N 53°20' W 003°42'0 0.0
2015-May-01 17:33N 53°20' W 003°42'0 0.0
2015-May-01 16:33N 53°20' W 003°42'0 0.0
2015-May-01 15:33N 53°20' W 003°42'0 0.0
2015-May-01 14:33N 53°20' W 003°42'0 0.0
2015-May-01 13:33N 53°20' W 003°42'0 0.0
2015-May-01 12:33N 53°20' W 003°42'0 0.0
2015-May-01 11:33N 53°20' W 003°42'0 0.0
2015-May-01 10:33N 53°20' W 003°42'0 0.0
2015-May-01 09:33N 53°20' W 003°42'0 0.0
2015-May-01 08:33N 53°20' W 003°42'0 0.1
2015-May-01 07:33N 53°20' W 003°42'69 9.2
2015-May-01 00:05N 54°12' W 004°56'610.8
2015-Apr-30 23:30N 54°18' W 004°59'1010.8
2015-Apr-30 22:33N 54°28' W 005°02'1111.1
2015-Apr-30 21:33N 54°39' W 005°07'1211.6
2015-Apr-30 20:33N 54°50' W 005°12'  
2015-Apr-28 12:30N 55°15' W 005°42'9 9.5
2015-Apr-28 11:32N 55°15' W 005°58'9 8.9
2015-Apr-28 10:33N 55°21' W 006°09'9 9.4
2015-Apr-28 09:33N 55°27' W 006°22'10 9.5
2015-Apr-28 08:33N 55°36' W 006°30'9 8.7
2015-Apr-28 07:33N 55°43' W 006°39'138 9.7
2015-Apr-27 17:16N 57°60' W 006°03'710.1
2015-Apr-27 16:33N 58°06' W 005°54'1010.2
2015-Apr-27 15:33N 58°14' W 005°42'1110.1
2015-Apr-27 14:30N 58°22' W 005°29'45 9.1
2015-Apr-27 09:32N 58°41' W 004°10'9 9.4
2015-Apr-27 08:33N 58°41' W 003°52'10 9.6
2015-Apr-27 07:33N 58°41' W 003°34'10 9.6
2015-Apr-27 06:28N 58°42' W 003°14'7 7.9
2015-Apr-27 05:33N 58°42' W 003°00'9 8.7
2015-Apr-27 04:33N 58°41' W 002°43'280 9.6
2015-Apr-25 23:29N 58°01' E 006°05'140 9.9
2015-Apr-25 09:21N 57°50' E 010°27'810.0
2015-Apr-25 08:31N 57°49' E 010°42'1010.3
2015-Apr-25 07:33N 57°43' E 010°57'1110.7
2015-Apr-25 06:33N 57°36' E 011°12'1111.3
2015-Apr-25 05:33N 57°27' E 011°26'1111.5
2015-Apr-25 04:33N 57°17' E 011°35'1211.4
2015-Apr-25 03:32N 57°07' E 011°45'1111.3
2015-Apr-25 02:33N 56°57' E 011°54'1111.3
2015-Apr-25 01:33N 56°47' E 012°03'1110.7
2015-Apr-25 00:33N 56°37' E 012°11'1111.1
2015-Apr-24 23:33N 56°27' E 012°18'1111.4
2015-Apr-24 22:33N 56°16' E 012°26'1111.3
2015-Apr-24 21:33N 56°06' E 012°35'1110.9
2015-Apr-24 20:33N 55°56' E 012°43'1111.0
2015-Apr-24 19:33N 55°45' E 012°42'1110.6
2015-Apr-24 18:33N 55°35' E 012°42'1110.8
2015-Apr-24 17:33N 55°24' E 012°42'9 9.3
2015-Apr-24 16:33N 55°16' E 012°51'1110.9
2015-Apr-24 15:33N 55°16' E 013°11'4210.2
2015-Apr-24 11:28N 55°18' E 014°24'1010.8
2015-Apr-24 10:33N 55°25' E 014°36'1110.7
2015-Apr-24 09:33N 55°29' E 014°54'1110.8
2015-Apr-24 08:33N 55°32' E 015°12'  

Dump ship's entire track history